createdAt,value
2018-10-19T00:00:09.436Z,10.40
2018-10-19T00:03:12.551Z,10.40
2018-10-19T00:06:15.618Z,10.40
2018-10-19T00:09:18.711Z,10.30
2018-10-19T00:12:21.826Z,10.30
2018-10-19T00:15:24.936Z,10.30
2018-10-19T00:18:28.029Z,10.30
2018-10-19T00:21:31.237Z,10.30
2018-10-19T00:24:34.390Z,10.30
2018-10-19T00:27:37.466Z,10.30
2018-10-19T00:30:40.650Z,10.30
2018-10-19T00:33:43.730Z,10.40
2018-10-19T00:36:46.901Z,10.40
2018-10-19T00:39:49.918Z,10.40
2018-10-19T00:42:52.997Z,10.40
2018-10-19T00:45:56.093Z,10.40
2018-10-19T00:48:59.170Z,10.50
2018-10-19T00:52:02.260Z,10.60
2018-10-19T00:55:05.792Z,10.70
2018-10-19T00:58:08.918Z,10.70
2018-10-19T01:01:11.985Z,10.70
2018-10-19T01:04:15.154Z,10.80
2018-10-19T01:07:18.221Z,10.80
2018-10-19T01:10:23.714Z,10.90
2018-10-19T01:13:26.791Z,10.90
2018-10-19T01:16:29.872Z,10.90
2018-10-19T01:19:32.982Z,10.90
2018-10-19T01:22:36.065Z,10.80
2018-10-19T01:25:42.146Z,10.90
2018-10-19T01:28:45.292Z,10.80
2018-10-19T01:31:48.389Z,10.80
2018-10-19T01:34:51.462Z,10.80
2018-10-19T01:37:54.591Z,10.80
2018-10-19T01:40:57.673Z,10.80
2018-10-19T01:44:00.769Z,10.80
2018-10-19T01:47:03.897Z,10.80
2018-10-19T01:50:07.599Z,10.80
2018-10-19T01:53:10.833Z,10.80
2018-10-19T01:56:13.787Z,10.80
2018-10-19T01:59:16.890Z,10.90
2018-10-19T02:02:19.998Z,10.90
2018-10-19T02:05:23.073Z,10.90
2018-10-19T02:08:26.164Z,10.90
2018-10-19T02:11:29.533Z,10.90
2018-10-19T02:14:32.623Z,10.90
2018-10-19T02:17:35.698Z,10.80
2018-10-19T02:20:38.770Z,10.80
2018-10-19T02:23:41.849Z,10.80
2018-10-19T02:26:44.937Z,10.70
2018-10-19T02:29:48.015Z,10.70
2018-10-19T02:32:51.106Z,10.70
2018-10-19T02:35:54.153Z,10.60
2018-10-19T02:38:57.548Z,10.60
2018-10-19T02:42:00.587Z,10.50
2018-10-19T02:45:03.784Z,10.50
2018-10-19T02:48:06.862Z,10.50
2018-10-19T02:51:10.019Z,10.50
2018-10-19T02:54:13.009Z,10.50
2018-10-19T02:57:16.188Z,10.50
2018-10-19T03:00:19.202Z,10.40
2018-10-19T03:03:22.363Z,10.40
2018-10-19T03:06:25.465Z,10.30
2018-10-19T03:09:28.545Z,10.20
2018-10-19T03:12:31.630Z,10.20
2018-10-19T03:15:34.722Z,10.10
2018-10-19T03:18:37.855Z,10.10
2018-10-19T03:21:41.015Z,10.10
2018-10-19T03:24:44.118Z,10.10
2018-10-19T03:27:47.202Z,10.10
2018-10-19T03:30:50.352Z,10.10
2018-10-19T03:33:53.370Z,10.10
2018-10-19T03:36:56.446Z,10.10
2018-10-19T03:39:59.556Z,10.10
2018-10-19T03:43:02.986Z,10.10
2018-10-19T03:46:06.444Z,10.10
2018-10-19T03:49:09.608Z,10.10
2018-10-19T03:52:12.645Z,10.10
2018-10-19T03:55:15.731Z,10.10
2018-10-19T03:58:18.822Z,10.20
2018-10-19T04:01:21.935Z,10.20
2018-10-19T04:04:25.034Z,10.20
2018-10-19T04:07:28.128Z,10.10
2018-10-19T04:10:31.193Z,10.10
2018-10-19T04:13:34.277Z,10.10
2018-10-19T04:16:37.402Z,10.20
2018-10-19T04:19:40.478Z,10.20
2018-10-19T04:22:43.666Z,10.20
2018-10-19T04:25:46.766Z,10.20
2018-10-19T04:28:49.848Z,10.20
2018-10-19T04:31:52.931Z,10.20
2018-10-19T04:34:56.066Z,10.10
2018-10-19T04:37:59.074Z,10.10
2018-10-19T04:41:02.178Z,10.10
2018-10-19T04:44:05.286Z,10.10
2018-10-19T04:47:08.424Z,10.10
2018-10-19T04:50:11.524Z,10.10
2018-10-19T04:53:14.784Z,10.10
2018-10-19T04:56:17.738Z,10.10
2018-10-19T04:59:20.831Z,10.10
2018-10-19T05:02:23.988Z,10.20
2018-10-19T05:05:27.196Z,10.20
2018-10-19T05:08:30.159Z,10.20
2018-10-19T05:11:33.273Z,10.20
2018-10-19T05:14:36.329Z,10.20
2018-10-19T05:17:39.463Z,10.20
2018-10-19T05:20:42.553Z,10.30
2018-10-19T05:23:45.642Z,10.30
2018-10-19T05:26:48.743Z,10.30
2018-10-19T05:29:51.806Z,10.30
2018-10-19T05:32:54.972Z,10.30
2018-10-19T05:35:57.975Z,10.40
2018-10-19T05:39:01.033Z,10.40
2018-10-19T05:42:04.123Z,10.40
2018-10-19T05:45:09.750Z,10.40
2018-10-19T05:48:12.879Z,10.50
2018-10-19T05:51:15.976Z,10.50
2018-10-19T05:54:19.097Z,10.50
2018-10-19T05:57:22.238Z,10.50
2018-10-19T06:00:25.329Z,10.50
2018-10-19T06:03:28.416Z,10.50
2018-10-19T06:06:31.485Z,10.50
2018-10-19T06:09:34.568Z,10.60
2018-10-19T06:12:37.666Z,10.60
2018-10-19T06:15:48.474Z,10.60
2018-10-19T06:18:51.558Z,10.70
2018-10-19T06:21:54.724Z,10.60
2018-10-19T06:24:57.773Z,10.60
2018-10-19T06:28:00.905Z,10.60
2018-10-19T06:31:03.986Z,10.70
2018-10-19T06:34:07.077Z,10.70
2018-10-19T06:37:10.154Z,10.80
2018-10-19T06:40:13.247Z,10.80
2018-10-19T06:43:16.321Z,10.80
2018-10-19T06:46:19.389Z,10.80
2018-10-19T06:49:22.475Z,10.90
2018-10-19T06:52:25.557Z,10.90
2018-10-19T06:55:28.634Z,11.00
2018-10-19T06:58:31.781Z,11.00
2018-10-19T07:01:34.857Z,11.00
2018-10-19T07:04:37.972Z,11.00
2018-10-19T07:07:41.028Z,11.10
2018-10-19T07:10:44.134Z,11.10
2018-10-19T07:13:47.238Z,11.10
2018-10-19T07:16:50.306Z,11.20
2018-10-19T07:19:53.961Z,11.40
2018-10-19T07:22:57.021Z,11.50
2018-10-19T07:26:00.176Z,11.60
2018-10-19T07:32:31.289Z,11.80
2018-10-19T07:35:34.366Z,11.80
2018-10-19T07:38:37.550Z,11.90
2018-10-19T07:41:40.609Z,12.00
2018-10-19T07:44:43.694Z,12.10
2018-10-19T07:47:52.995Z,12.10
2018-10-19T07:50:56.009Z,12.20
2018-10-19T07:53:59.090Z,12.30
2018-10-19T07:57:02.183Z,12.30
2018-10-19T08:00:06.222Z,12.30
2018-10-19T08:03:09.265Z,12.40
2018-10-19T08:06:12.392Z,12.50
2018-10-19T08:09:15.437Z,12.40
2018-10-19T08:12:18.558Z,12.50
2018-10-19T08:15:21.727Z,12.60
2018-10-19T08:18:24.798Z,12.60
2018-10-19T08:21:27.881Z,12.70
2018-10-19T08:24:30.946Z,12.70
2018-10-19T08:27:34.117Z,12.80
2018-10-19T08:30:37.211Z,12.80
2018-10-19T08:33:40.409Z,12.80
2018-10-19T08:36:43.513Z,12.90
2018-10-19T08:39:46.642Z,12.90
2018-10-19T08:42:49.750Z,13.10
2018-10-19T08:45:52.806Z,13.20
2018-10-19T08:48:55.925Z,13.10
2018-10-19T08:51:59.115Z,13.10
2018-10-19T08:55:02.280Z,13.20
2018-10-19T08:58:05.436Z,13.30
2018-10-19T09:01:08.515Z,13.50
2018-10-19T09:04:11.656Z,13.60
2018-10-19T09:07:14.713Z,13.70
2018-10-19T09:10:17.802Z,13.80
2018-10-19T09:13:28.784Z,14.00
2018-10-19T09:16:46.029Z,14.10
2018-10-19T09:19:51.578Z,14.30
2018-10-19T09:22:56.132Z,14.20
2018-10-19T09:26:02.763Z,14.10
2018-10-19T09:29:18.367Z,14.10
2018-10-19T09:32:39.129Z,14.10
2018-10-19T09:35:49.472Z,14.20
2018-10-19T09:38:52.595Z,14.20
2018-10-19T09:42:08.372Z,14.30
2018-10-19T09:45:16.390Z,14.40
2018-10-19T09:48:21.413Z,14.30
2018-10-19T09:51:25.610Z,14.30
2018-10-19T09:54:32.394Z,14.40
2018-10-19T09:57:39.422Z,14.50
2018-10-19T10:00:56.560Z,14.60
2018-10-19T10:04:10.623Z,14.70
2018-10-19T10:07:38.154Z,14.80
2018-10-19T10:10:42.353Z,14.80
2018-10-19T10:14:09.925Z,15.00
2018-10-19T10:17:15.112Z,15.20
2018-10-19T10:20:24.842Z,15.70
2018-10-19T10:23:34.641Z,16.10
2018-10-19T10:26:45.382Z,16.30
2018-10-19T10:29:51.593Z,16.50
2018-10-19T10:32:54.769Z,16.40
2018-10-19T10:39:35.529Z,16.10
2018-10-19T10:42:43.014Z,16.00
2018-10-19T10:45:48.121Z,16.00
2018-10-19T10:48:51.249Z,15.80
2018-10-19T10:51:57.735Z,15.70
2018-10-19T10:55:00.878Z,15.60
2018-10-19T10:58:08.690Z,15.50
2018-10-19T11:01:16.091Z,15.50
2018-10-19T11:04:27.221Z,15.70
2018-10-19T11:07:38.450Z,15.70
2018-10-19T11:10:45.170Z,15.70
2018-10-19T11:13:55.558Z,15.40
2018-10-19T11:17:02.455Z,15.20
2018-10-19T11:20:24.547Z,15.10
2018-10-19T11:23:35.996Z,15.20
2018-10-19T11:26:40.105Z,15.30
2018-10-19T11:29:47.016Z,15.10
2018-10-19T11:32:50.206Z,15.10
2018-10-19T11:35:53.382Z,15.20
2018-10-19T11:38:59.862Z,15.30
2018-10-19T11:42:03.188Z,15.50
2018-10-19T11:45:07.506Z,15.60
2018-10-19T11:48:12.634Z,15.80
2018-10-19T11:51:15.783Z,15.80
2018-10-19T11:54:28.890Z,15.70
2018-10-19T11:57:49.369Z,15.70
2018-10-19T12:00:58.503Z,15.80
2018-10-19T12:04:05.537Z,15.70
2018-10-19T12:07:12.634Z,15.60
2018-10-19T12:10:25.964Z,15.30
2018-10-19T12:13:39.369Z,15.20
2018-10-19T12:16:46.040Z,15.20
2018-10-19T12:20:12.229Z,15.20
2018-10-19T12:23:26.523Z,15.20
2018-10-19T12:26:46.073Z,15.30
2018-10-19T12:29:55.073Z,15.30
2018-10-19T12:32:59.227Z,15.20
2018-10-19T12:36:05.625Z,15.20
2018-10-19T12:39:09.617Z,15.20
2018-10-19T12:42:27.193Z,15.20
2018-10-19T12:46:45.203Z,15.20
2018-10-19T12:49:52.823Z,15.20
2018-10-19T12:52:56.962Z,15.30
2018-10-19T12:56:00.134Z,15.30
2018-10-19T12:59:04.575Z,15.40
2018-10-19T13:02:11.777Z,15.50
2018-10-19T13:05:18.958Z,15.60
2018-10-19T13:08:22.129Z,15.70
2018-10-19T13:11:32.913Z,15.60
2018-10-19T13:14:48.240Z,15.70
2018-10-19T13:17:56.919Z,15.70
2018-10-19T13:21:05.786Z,15.70
2018-10-19T13:24:08.990Z,15.60
2018-10-19T13:27:13.118Z,15.60
2018-10-19T13:30:22.835Z,15.50
2018-10-19T13:36:58.768Z,15.40
2018-10-19T13:40:01.868Z,15.30
2018-10-19T13:43:10.501Z,15.30
2018-10-19T13:46:23.281Z,15.30
2018-10-19T13:49:38.910Z,15.20
2018-10-19T13:52:44.038Z,15.20
2018-10-19T13:56:04.357Z,15.10
2018-10-19T13:59:19.947Z,15.10
2018-10-19T14:02:27.441Z,15.10
2018-10-19T14:05:30.684Z,15.20
2018-10-19T14:08:33.805Z,15.20
2018-10-19T14:11:38.458Z,15.10
2018-10-19T14:14:43.798Z,15.20
2018-10-19T14:17:46.910Z,15.20
2018-10-19T14:20:49.986Z,15.10
2018-10-19T14:23:53.062Z,15.20
2018-10-19T14:26:56.167Z,15.20
2018-10-19T14:29:59.262Z,15.20
2018-10-19T14:33:02.441Z,15.20
2018-10-19T14:36:05.469Z,15.10
2018-10-19T14:39:08.690Z,15.10
2018-10-19T14:42:11.946Z,15.10
2018-10-19T14:45:15.642Z,15.10
2018-10-19T14:48:18.619Z,15.10
2018-10-19T14:51:21.829Z,15.00
2018-10-19T14:54:24.887Z,15.00
2018-10-19T14:57:27.968Z,14.90
2018-10-19T15:00:31.061Z,14.90
2018-10-19T15:03:34.158Z,14.80
2018-10-19T15:06:37.650Z,14.70
2018-10-19T15:09:40.894Z,14.70
2018-10-19T15:12:44.110Z,14.60
2018-10-19T15:15:47.190Z,14.60
2018-10-19T15:18:50.607Z,14.50
2018-10-19T15:21:59.894Z,14.40
2018-10-19T15:25:03.897Z,14.30
2018-10-19T15:28:07.604Z,14.20
2018-10-19T15:31:11.081Z,14.20
2018-10-19T15:34:14.342Z,14.10
2018-10-19T15:37:17.824Z,14.10
2018-10-19T15:40:27.085Z,14.00
2018-10-19T15:43:30.434Z,13.90
2018-10-19T15:50:06.402Z,13.80
2018-10-19T15:53:09.562Z,13.70
2018-10-19T15:56:12.662Z,13.70
2018-10-19T15:59:15.773Z,13.70
2018-10-19T16:02:19.023Z,13.70
2018-10-19T16:05:22.122Z,13.60
2018-10-19T16:08:25.203Z,13.50
2018-10-19T16:11:28.370Z,13.40
2018-10-19T16:14:31.442Z,13.40
2018-10-19T16:17:34.643Z,13.30
2018-10-19T16:20:37.665Z,13.30
2018-10-19T16:23:40.761Z,13.20
2018-10-19T16:26:43.838Z,13.30
2018-10-19T16:29:46.934Z,13.20
2018-10-19T16:32:50.001Z,13.10
2018-10-19T16:35:53.343Z,13.10
2018-10-19T16:38:56.429Z,13.00
2018-10-19T16:41:59.531Z,13.00
2018-10-19T16:45:02.631Z,13.00
2018-10-19T16:48:05.804Z,12.90
2018-10-19T16:51:08.862Z,13.00
2018-10-19T16:54:11.964Z,13.00
2018-10-19T16:57:15.043Z,13.00
2018-10-19T17:00:18.034Z,13.00
2018-10-19T17:03:21.138Z,13.00
2018-10-19T17:06:24.189Z,12.90
2018-10-19T17:09:27.269Z,13.00
2018-10-19T17:12:30.381Z,13.00
2018-10-19T17:15:33.434Z,13.00
2018-10-19T17:18:36.525Z,12.90
2018-10-19T17:21:39.567Z,12.90
2018-10-19T17:24:42.639Z,12.80
2018-10-19T17:27:45.726Z,12.70
2018-10-19T17:30:48.863Z,12.60
2018-10-19T17:33:52.047Z,12.60
2018-10-19T17:36:55.055Z,12.60
2018-10-19T17:39:58.093Z,12.50
2018-10-19T17:43:01.231Z,12.50
2018-10-19T17:46:04.238Z,12.50
2018-10-19T17:49:07.449Z,12.50
2018-10-19T17:52:10.494Z,12.50
2018-10-19T17:55:13.544Z,12.50
2018-10-19T17:58:16.617Z,12.50
2018-10-19T18:01:19.685Z,12.50
2018-10-19T18:04:22.761Z,12.50
2018-10-19T18:07:25.847Z,12.50
2018-10-19T18:10:28.973Z,12.50
2018-10-19T18:13:32.097Z,12.50
2018-10-19T18:16:35.446Z,12.40
2018-10-19T18:19:38.536Z,12.40
2018-10-19T18:22:41.710Z,12.50
2018-10-19T18:25:44.742Z,12.50
2018-10-19T18:28:47.990Z,12.50
2018-10-19T18:31:51.093Z,12.50
2018-10-19T18:34:54.215Z,12.40
2018-10-19T18:37:57.289Z,12.40
2018-10-19T18:41:00.433Z,12.30
2018-10-19T18:44:03.596Z,12.30
2018-10-19T18:47:06.646Z,12.30
2018-10-19T18:50:09.868Z,12.30
2018-10-19T18:53:12.962Z,12.20
2018-10-19T18:56:16.100Z,12.20
2018-10-19T18:59:19.027Z,12.20
2018-10-19T19:02:22.121Z,12.10
2018-10-19T19:05:25.164Z,12.00
2018-10-19T19:08:28.244Z,12.00
2018-10-19T19:11:31.297Z,11.90
2018-10-19T19:14:34.505Z,11.80
2018-10-19T19:17:38.166Z,11.70
2018-10-19T19:20:41.250Z,11.60
2018-10-19T19:23:49.683Z,11.50
2018-10-19T19:26:52.766Z,11.40
2018-10-19T19:29:55.882Z,11.40
2018-10-19T19:33:04.406Z,11.30
2018-10-19T19:36:07.510Z,11.20
2018-10-19T19:39:10.810Z,11.20
2018-10-19T19:42:19.474Z,11.20
2018-10-19T19:45:22.558Z,11.10
2018-10-19T19:48:31.203Z,11.10
2018-10-19T19:51:34.286Z,11.00
2018-10-19T19:54:37.338Z,11.00
2018-10-19T19:57:40.418Z,11.00
2018-10-19T20:00:43.530Z,11.00
2018-10-19T20:03:46.669Z,10.90
2018-10-19T20:06:49.769Z,10.90
2018-10-19T20:09:52.873Z,10.90
2018-10-19T20:12:55.956Z,10.90
2018-10-19T20:15:59.007Z,10.90
2018-10-19T20:19:02.107Z,10.90
2018-10-19T20:22:05.359Z,10.90
2018-10-19T20:25:09.614Z,11.00
2018-10-19T20:28:12.689Z,10.90
2018-10-19T20:31:15.774Z,10.80
2018-10-19T20:34:18.910Z,10.70
2018-10-19T20:37:21.975Z,10.60
2018-10-19T20:40:25.114Z,10.50
2018-10-19T20:43:28.177Z,10.50
2018-10-19T20:46:31.257Z,10.40
2018-10-19T20:49:34.350Z,10.50
2018-10-19T20:52:41.516Z,10.40
2018-10-19T20:55:44.606Z,10.40
2018-10-19T20:58:47.767Z,10.40
2018-10-19T21:01:50.835Z,10.40
2018-10-19T21:04:53.981Z,10.40
2018-10-19T21:07:57.028Z,10.40
2018-10-19T21:11:00.208Z,10.40
2018-10-19T21:14:03.304Z,10.40
2018-10-19T21:17:06.398Z,10.50
2018-10-19T21:20:10.712Z,10.50
2018-10-19T21:23:13.851Z,10.60
2018-10-19T21:26:16.815Z,10.50
2018-10-19T21:29:19.912Z,10.40
2018-10-19T21:32:23.023Z,10.40
2018-10-19T21:35:26.118Z,10.30
2018-10-19T21:38:29.244Z,10.30
2018-10-19T21:41:32.319Z,10.20
2018-10-19T21:44:35.408Z,10.20
2018-10-19T21:47:38.474Z,10.10
2018-10-19T21:50:41.554Z,10.10
2018-10-19T21:53:44.654Z,10.10
2018-10-19T21:56:47.730Z,9.90
2018-10-19T21:59:50.818Z,9.80
2018-10-19T22:02:53.894Z,9.70
2018-10-19T22:05:56.983Z,9.60
2018-10-19T22:09:00.046Z,9.60
2018-10-19T22:12:03.102Z,9.60
2018-10-19T22:15:06.653Z,9.60
2018-10-19T22:18:09.750Z,9.70
2018-10-19T22:21:12.825Z,9.70
2018-10-19T22:24:15.890Z,9.70
2018-10-19T22:27:18.986Z,9.80
2018-10-19T22:30:22.038Z,9.80
2018-10-19T22:33:25.114Z,9.70
2018-10-19T22:36:28.197Z,9.60
2018-10-19T22:39:31.274Z,9.60
2018-10-19T22:42:34.380Z,9.60
2018-10-19T22:45:37.442Z,9.60
2018-10-19T22:48:40.532Z,9.50
2018-10-19T22:51:43.639Z,9.40
2018-10-19T22:54:46.699Z,9.40
2018-10-19T22:57:49.785Z,9.30
2018-10-19T23:00:53.183Z,9.20
2018-10-19T23:03:56.302Z,9.30
2018-10-19T23:06:59.547Z,9.40
2018-10-19T23:10:02.621Z,9.50
2018-10-19T23:13:05.720Z,9.50
2018-10-19T23:16:08.807Z,9.50
2018-10-19T23:19:11.969Z,9.50
2018-10-19T23:22:14.990Z,9.40
2018-10-19T23:25:18.090Z,9.30
2018-10-19T23:28:21.209Z,9.30
2018-10-19T23:31:24.458Z,9.30
2018-10-19T23:34:27.461Z,9.30
2018-10-19T23:37:30.575Z,9.20
2018-10-19T23:40:33.633Z,9.00
2018-10-19T23:43:41.179Z,8.90
2018-10-19T23:46:44.228Z,8.90
2018-10-19T23:49:53.834Z,8.90
2018-10-19T23:52:56.938Z,8.80
2018-10-19T23:56:00.050Z,8.70
2018-10-19T23:59:03.164Z,8.70
